Time;durP1;ratioP1;P1;durP2;ratioP2;P2;SDS_P1;SDS_P2;PMS_P1;PMS_P2;Temp;Humidity;BMP_temperature;BMP_pressure;BME280_temperature;BME280_humidity;BME280_pressure;Samples;Min_cycle;Max_cycle;Signal;HPM_P1;HPM_P2
2021/06/10 09:27:22;;;;;;;6.97;2.67;;;27.40;45.70;;;;;;5813786;27;20460;-78
2021/06/10 09:30:47;;;;;;;4.65;3.17;;;27.50;45.70;;;;;;6117323;29;20107;-78
2021/06/10 09:33:48;;;;;;;5.65;2.67;;;27.60;45.30;;;;;;6107248;29;20048;-78
2021/06/10 09:36:50;;;;;;;3.30;2.55;;;27.60;44.90;;;;;;6130283;29;20031;-78
2021/06/10 09:39:56;;;;;;;7.25;3.97;;;27.50;44.70;;;;;;6096138;29;20036;-79
2021/06/10 09:42:57;;;;;;;6.20;2.50;;;27.50;44.60;;;;;;6109569;29;20496;-79
2021/06/10 09:45:59;;;;;;;3.50;2.92;;;27.50;44.40;;;;;;6123133;29;20040;-79
2021/06/10 09:49:05;;;;;;;7.72;3.42;;;27.60;44.30;;;;;;6105635;28;20531;-79
2021/06/10 09:52:06;;;;;;;5.55;3.10;;;27.70;44.10;;;;;;6117804;28;20032;-79
2021/06/10 09:55:07;;;;;;;7.25;3.10;;;27.70;43.80;;;;;;6108949;29;20576;-79
2021/06/10 09:58:12;;;;;;;3.65;2.90;;;27.80;43.60;;;;;;6107549;29;20039;-81
2021/06/10 10:01:16;;;;;;;12.20;4.40;;;27.90;43.40;;;;;;6114475;28;20096;-79
2021/06/10 10:04:20;;;;;;;3.92;2.78;;;28.00;43.50;;;;;;6104143;29;20055;-79
2021/06/10 10:07:25;;;;;;;5.10;3.20;;;28.00;43.40;;;;;;6117469;28;20063;-81
2021/06/10 10:10:26;;;;;;;5.03;2.92;;;28.10;42.90;;;;;;6088830;29;20148;-80
2021/06/10 10:13:30;;;;;;;7.47;3.58;;;28.20;42.80;;;;;;6127043;28;20378;-79
2021/06/10 10:16:36;;;;;;;5.93;3.25;;;28.30;42.80;;;;;;6122675;29;20031;-80
2021/06/10 10:19:38;;;;;;;8.85;2.92;;;28.40;42.80;;;;;;6112621;29;20040;-81
2021/06/10 10:22:40;;;;;;;3.67;3.00;;;28.40;43.20;;;;;;6096265;29;20055;-81
2021/06/10 10:25:41;;;;;;;5.35;2.97;;;28.50;42.30;;;;;;6119487;29;20088;-80
2021/06/10 10:28:44;;;;;;;4.15;2.83;;;28.50;42.10;;;;;;6088523;29;20040;-79
2021/06/10 10:31:49;;;;;;;5.93;3.00;;;28.50;41.70;;;;;;6104011;29;20044;-80
2021/06/10 10:34:51;;;;;;;5.60;3.28;;;28.50;41.70;;;;;;6103969;29;20032;-79
2021/06/10 10:37:55;;;;;;;5.78;2.90;;;28.60;41.80;;;;;;6127229;28;20046;-79
2021/06/10 10:41:03;;;;;;;5.78;3.13;;;28.60;41.40;;;;;;6124647;28;20036;-80
2021/06/10 10:44:19;;;;;;;3.22;2.78;;;28.70;41.20;;;;;;6111641;28;20356;-79
2021/06/10 10:47:20;;;;;;;4.10;2.80;;;28.80;41.00;;;;;;6124955;28;20048;-80
2021/06/10 10:50:32;;;;;;;5.55;3.70;;;28.80;40.80;;;;;;6110235;28;20031;-80
2021/06/10 10:53:44;;;;;;;4.63;2.92;;;28.80;40.90;;;;;;6088644;28;20043;-80
2021/06/10 10:56:45;;;;;;;5.85;3.25;;;28.90;40.90;;;;;;6122284;28;20539;-78
2021/06/10 10:59:50;;;;;;;10.43;3.58;;;28.90;40.80;;;;;;6115921;28;20035;-79
2021/06/10 11:03:35;;;;;;;5.28;2.55;;;29.00;40.70;;;;;;6127686;28;20032;-81
2021/06/10 11:06:37;;;;;;;6.47;3.85;;;29.50;40.00;;;;;;6102411;28;20067;-79
2021/06/10 11:09:44;;;;;;;8.40;3.50;;;31.10;37.80;;;;;;6119623;28;20039;-79
2021/06/10 11:12:51;;;;;;;6.90;3.05;;;32.40;35.80;;;;;;6127824;28;20058;-80
2021/06/10 11:15:57;;;;;;;5.03;3.42;;;33.50;34.00;;;;;;6118162;28;20067;-78
2021/06/10 11:19:01;;;;;;;4.22;3.15;;;34.40;32.80;;;;;;6135971;28;20183;-80
2021/06/10 11:22:04;;;;;;;7.13;3.83;;;34.90;31.80;;;;;;6120509;28;20046;-80
2021/06/10 11:25:13;;;;;;;5.75;3.47;;;35.20;31.20;;;;;;6124313;28;20044;-80
2021/06/10 11:28:19;;;;;;;4.55;3.30;;;35.70;30.70;;;;;;6118227;28;20058;-80
2021/06/10 11:31:21;;;;;;;3.65;3.13;;;36.20;30.00;;;;;;6118463;28;20032;-80
2021/06/10 11:34:30;;;;;;;6.50;2.97;;;36.60;29.50;;;;;;6124910;28;20036;-79
2021/06/10 11:37:33;;;;;;;4.25;3.00;;;37.00;29.10;;;;;;6124543;28;20043;-80
2021/06/10 11:40:37;;;;;;;9.63;4.15;;;37.40;28.80;;;;;;6124005;28;20035;-79
2021/06/10 11:43:41;;;;;;;4.80;3.38;;;37.80;28.40;;;;;;6124800;28;20044;-79
2021/06/10 11:46:42;;;;;;;4.82;3.30;;;38.20;27.90;;;;;;6107722;28;20044;-79
2021/06/10 11:49:43;;;;;;;4.97;3.42;;;38.30;27.70;;;;;;6124078;28;20465;-80
2021/06/10 11:52:52;;;;;;;3.50;2.72;;;38.50;27.50;;;;;;6108683;28;20031;-80
2021/06/10 11:55:56;;;;;;;4.72;3.33;;;38.60;27.30;;;;;;6121856;28;20480;-79
2021/06/10 11:59:19;;;;;;;12.63;3.67;;;38.70;27.30;;;;;;6108100;28;20036;-80
2021/06/10 12:02:25;;;;;;;5.03;2.95;;;38.70;27.40;;;;;;6121115;28;20028;-80
2021/06/10 12:05:28;;;;;;;4.15;2.70;;;38.80;27.30;;;;;;6105187;28;20045;-79
2021/06/10 12:08:32;;;;;;;6.97;3.17;;;38.80;26.90;;;;;;6130241;28;20039;-79
2021/06/10 12:11:32;;;;;;;5.78;3.22;;;38.70;27.00;;;;;;6124625;28;20178;-78
2021/06/10 12:14:40;;;;;;;9.27;2.95;;;38.60;26.90;;;;;;6123497;28;22546;-80
2021/06/10 12:17:57;;;;;;;8.32;2.95;;;38.60;27.10;;;;;;6122876;28;20062;-79
2021/06/10 12:21:02;;;;;;;11.07;3.38;;;38.90;27.10;;;;;;6120625;28;20473;-80
2021/06/10 12:24:03;;;;;;;5.22;3.05;;;39.20;26.70;;;;;;6151765;28;20043;-79
2021/06/10 12:27:16;;;;;;;7.10;2.85;;;39.10;26.40;;;;;;6156271;28;20051;-78
2021/06/10 12:30:23;;;;;;;8.57;3.10;;;38.90;26.70;;;;;;6126686;28;20031;-79
2021/06/10 12:33:24;;;;;;;6.43;2.88;;;38.80;26.60;;;;;;6133947;28;20055;-79
2021/06/10 12:36:32;;;;;;;10.75;3.22;;;38.80;26.50;;;;;;6128530;28;20119;-79
2021/06/10 12:39:36;;;;;;;4.43;3.05;;;38.70;26.60;;;;;;6126801;28;20114;-80
2021/06/10 12:42:37;;;;;;;5.72;3.45;;;38.80;26.40;;;;;;6127093;28;20051;-80
2021/06/10 12:45:39;;;;;;;8.35;3.78;;;38.80;26.40;;;;;;6117863;28;20039;-78
2021/06/10 12:48:58;;;;;;;3.60;2.72;;;38.80;26.40;;;;;;6111738;28;20039;-79
2021/06/10 12:52:03;;;;;;;8.70;3.30;;;39.10;26.30;;;;;;6123039;28;20348;-80
2021/06/10 12:55:05;;;;;;;4.18;3.05;;;39.30;25.90;;;;;;6126539;28;20040;-79
2021/06/10 12:58:07;;;;;;;7.78;4.32;;;39.60;25.60;;;;;;6126771;28;20040;-78
2021/06/10 13:01:09;;;;;;;4.47;3.17;;;39.70;25.40;;;;;;6124420;28;20035;-79
2021/06/10 13:04:21;;;;;;;8.93;3.65;;;39.90;25.10;;;;;;6124490;28;20074;-78
2021/06/10 13:07:36;;;;;;;4.45;3.40;;;40.40;24.90;;;;;;6130747;28;20384;-79
2021/06/10 13:10:48;;;;;;;4.97;3.00;;;40.80;24.20;;;;;;6133215;28;20039;-78
2021/06/10 13:13:51;;;;;;;3.25;2.70;;;41.30;23.90;;;;;;6118741;28;20460;-79
2021/06/10 13:16:52;;;;;;;6.68;3.20;;;42.00;23.50;;;;;;6128433;28;20070;-79
2021/06/10 13:19:57;;;;;;;6.72;3.20;;;42.60;22.90;;;;;;6126828;28;20046;-79
2021/06/10 13:23:02;;;;;;;4.65;2.90;;;43.00;22.40;;;;;;6102370;28;20032;-79
2021/06/10 13:26:21;;;;;;;3.97;2.83;;;43.30;22.00;;;;;;6125369;28;20034;-79
2021/06/10 13:29:23;;;;;;;3.90;2.72;;;43.40;21.90;;;;;;6121700;28;20039;-79
2021/06/10 13:32:25;;;;;;;3.25;2.95;;;43.60;21.60;;;;;;6114633;28;20059;-79
2021/06/10 13:35:28;;;;;;;3.72;2.83;;;43.70;21.30;;;;;;6125261;28;20131;-80
2021/06/10 13:38:29;;;;;;;5.47;3.47;;;44.00;21.10;;;;;;6124880;28;20162;-80
2021/06/10 13:41:33;;;;;;;4.38;2.92;;;44.30;21.00;;;;;;6106420;28;20135;-79
2021/06/10 13:44:37;;;;;;;5.05;2.90;;;44.50;20.80;;;;;;6117285;28;20036;-79
2021/06/10 13:47:38;;;;;;;11.25;3.35;;;45.00;20.50;;;;;;6125262;28;20523;-80
2021/06/10 13:50:42;;;;;;;3.50;2.78;;;45.40;20.20;;;;;;6126425;28;20043;-80
2021/06/10 13:53:46;;;;;;;3.05;2.75;;;45.90;19.70;;;;;;6117743;28;20118;-79
2021/06/10 13:56:48;;;;;;;3.92;3.10;;;46.50;19.40;;;;;;6123819;28;20059;-79
2021/06/10 13:59:49;;;;;;;6.85;3.33;;;47.00;19.10;;;;;;6117970;28;20036;-79
2021/06/10 14:02:53;;;;;;;5.28;2.92;;;47.40;18.70;;;;;;6126059;28;20031;-79
2021/06/10 14:05:57;;;;;;;10.10;2.67;;;47.10;18.40;;;;;;6123563;28;20051;-80
2021/06/10 14:08:59;;;;;;;4.68;3.00;;;46.60;18.60;;;;;;6124461;28;20087;-79
2021/06/10 14:12:03;;;;;;;3.38;2.72;;;46.50;18.90;;;;;;6118140;28;20144;-78
2021/06/10 14:15:05;;;;;;;4.75;2.70;;;46.60;18.60;;;;;;6126771;28;20539;-78
2021/06/10 14:18:08;;;;;;;3.13;2.83;;;46.50;18.70;;;;;;6126449;28;20067;-79
2021/06/10 14:21:08;;;;;;;5.53;3.13;;;46.30;18.90;;;;;;6142826;28;20035;-79
2021/06/10 14:24:13;;;;;;;3.38;2.85;;;46.20;18.90;;;;;;6126136;28;20361;-79
2021/06/10 14:27:19;;;;;;;4.05;3.20;;;46.40;18.80;;;;;;6126345;28;20106;-79
2021/06/10 14:33:25;;;;;;;3.80;3.00;;;46.20;18.80;;;;;;6123302;28;20127;-78
2021/06/10 14:36:29;;;;;;;4.03;2.55;;;46.10;18.80;;;;;;6124378;28;20108;-79
2021/06/10 14:39:30;;;;;;;3.60;2.83;;;45.70;18.90;;;;;;6141838;28;20046;-77
2021/06/10 14:42:31;;;;;;;3.15;2.85;;;45.40;19.10;;;;;;6111045;28;20051;-78
2021/06/10 14:45:33;;;;;;;7.35;3.03;;;45.40;19.10;;;;;;6125679;28;20035;-79
2021/06/10 14:48:34;;;;;;;6.43;3.08;;;45.60;19.00;;;;;;6127206;28;20046;-79
2021/06/10 14:51:35;;;;;;;3.33;3.03;;;45.80;18.60;;;;;;6108951;28;20472;-79
2021/06/10 14:54:36;;;;;;;3.05;2.75;;;45.40;18.80;;;;;;6126751;28;20059;-79
2021/06/10 14:57:48;;;;;;;6.80;3.38;;;44.70;19.10;;;;;;6123888;28;20601;-79
2021/06/10 15:00:51;;;;;;;2.97;2.60;;;44.30;19.60;;;;;;6111498;28;20397;-79
2021/06/10 15:03:51;;;;;;;3.03;2.72;;;44.30;19.70;;;;;;6143457;28;20062;-79
2021/06/10 15:06:53;;;;;;;4.60;3.00;;;44.40;19.70;;;;;;6126999;28;20106;-79
2021/06/10 15:09:54;;;;;;;3.33;2.80;;;44.40;19.60;;;;;;6127546;29;20036;-79
2021/06/10 15:12:55;;;;;;;3.67;2.90;;;44.30;19.70;;;;;;6110476;29;20048;-78
2021/06/10 15:15:59;;;;;;;4.18;3.45;;;44.30;19.70;;;;;;6125765;29;20122;-79
2021/06/10 15:19:00;;;;;;;3.50;3.15;;;44.00;19.90;;;;;;6110036;29;20043;-79
2021/06/10 15:22:01;;;;;;;3.35;2.95;;;43.80;20.10;;;;;;6115022;28;20032;-79
2021/06/10 15:25:08;;;;;;;8.65;3.45;;;44.10;20.00;;;;;;6126252;28;20050;-79
2021/06/10 15:28:09;;;;;;;4.70;3.05;;;44.10;19.80;;;;;;6092516;29;20048;-79
2021/06/10 15:31:11;;;;;;;6.47;3.10;;;44.10;19.80;;;;;;6134713;28;20134;-79
2021/06/10 15:34:18;;;;;;;4.28;3.60;;;43.90;19.90;;;;;;6141291;28;20115;-79
2021/06/10 15:37:22;;;;;;;3.83;2.90;;;44.00;19.70;;;;;;6125552;28;20047;-79
2021/06/10 15:40:23;;;;;;;11.90;3.10;;;44.00;19.60;;;;;;6126681;28;20039;-77
2021/06/10 15:43:24;;;;;;;3.42;2.63;;;44.10;19.70;;;;;;6101053;28;20054;-79
2021/06/10 15:46:29;;;;;;;4.28;2.85;;;43.90;19.50;;;;;;6125993;28;20321;-79
2021/06/10 15:49:34;;;;;;;3.80;3.10;;;43.70;19.80;;;;;;6125521;28;20054;-78
2021/06/10 15:52:38;;;;;;;4.60;3.15;;;43.30;20.10;;;;;;6125387;29;20052;-79
2021/06/10 15:55:39;;;;;;;4.15;3.03;;;43.00;20.20;;;;;;6110008;29;20054;-78
2021/06/10 15:58:43;;;;;;;3.83;2.85;;;42.60;20.50;;;;;;6086366;29;20484;-79
2021/06/10 16:01:48;;;;;;;4.45;3.13;;;42.60;20.60;;;;;;6086947;29;20043;-79
2021/06/10 16:04:49;;;;;;;3.03;2.70;;;42.80;20.40;;;;;;6102208;28;20084;-79
2021/06/10 16:07:54;;;;;;;6.60;2.92;;;42.90;20.20;;;;;;6101688;29;20438;-79
2021/06/10 16:10:55;;;;;;;4.57;2.88;;;43.10;20.20;;;;;;6132313;28;20063;-79
2021/06/10 16:13:56;;;;;;;7.10;2.72;;;43.00;20.10;;;;;;6134016;28;20050;-79
2021/06/10 16:17:02;;;;;;;2.78;2.38;;;42.80;20.10;;;;;;6117508;29;20063;-78
2021/06/10 16:20:09;;;;;;;3.22;2.67;;;42.10;20.50;;;;;;6108796;29;20154;-79
2021/06/10 16:23:11;;;;;;;4.97;3.05;;;41.10;21.20;;;;;;6124974;28;20032;-79
2021/06/10 16:26:12;;;;;;;5.28;3.05;;;40.00;22.20;;;;;;6121327;29;20082;-79
2021/06/10 16:29:14;;;;;;;4.82;3.03;;;39.10;23.00;;;;;;6102750;29;20058;-78
2021/06/10 16:32:14;;;;;;;3.80;3.20;;;38.50;23.60;;;;;;6102098;29;20040;-79
2021/06/10 16:35:21;;;;;;;6.30;3.45;;;37.90;24.70;;;;;;6104344;29;20036;-79
2021/06/10 16:38:25;;;;;;;6.63;4.15;;;37.10;26.10;;;;;;6104644;29;20040;-79
2021/06/10 16:41:27;;;;;;;5.25;3.60;;;36.30;27.70;;;;;;6103052;29;20033;-78
2021/06/10 16:44:28;;;;;;;4.75;3.75;;;35.40;29.00;;;;;;6102145;29;20115;-80
2021/06/10 16:47:29;;;;;;;4.97;3.58;;;34.80;30.00;;;;;;6104560;29;20040;-79
2021/06/10 16:50:33;;;;;;;4.55;3.72;;;34.40;30.80;;;;;;6108788;29;20484;-79
2021/06/10 16:53:35;;;;;;;4.68;3.40;;;34.40;30.80;;;;;;6125505;29;20059;-80
2021/06/10 16:56:35;;;;;;;7.20;3.35;;;34.60;30.60;;;;;;6118545;29;20048;-79
2021/06/10 16:59:36;;;;;;;4.43;3.10;;;34.40;30.60;;;;;;6105463;29;20149;-79
2021/06/10 17:05:51;;;;;;;5.07;3.00;;;33.60;31.50;;;;;;6123250;29;20369;-79
2021/06/10 17:08:52;;;;;;;3.35;2.90;;;33.20;32.10;;;;;;6124364;28;20361;-79
2021/06/10 17:11:55;;;;;;;3.25;2.67;;;32.80;32.60;;;;;;6129652;28;20032;-80
2021/06/10 17:14:56;;;;;;;3.13;2.67;;;32.40;33.10;;;;;;6113373;28;20040;-79
2021/06/10 17:17:59;;;;;;;4.85;3.38;;;32.00;33.60;;;;;;6109523;28;20099;-79
2021/06/10 17:21:00;;;;;;;4.25;2.83;;;31.90;34.70;;;;;;6143314;28;20039;-80
2021/06/10 17:24:02;;;;;;;4.18;3.05;;;31.60;34.30;;;;;;6129222;28;20040;-79
2021/06/10 17:27:03;;;;;;;3.70;2.75;;;31.40;34.70;;;;;;6128667;28;20044;-79
2021/06/10 17:30:08;;;;;;;3.85;3.05;;;31.20;35.50;;;;;;6122481;28;20039;-78
2021/06/10 17:33:09;;;;;;;3.78;2.67;;;31.00;35.80;;;;;;6136015;28;20068;-79
2021/06/10 17:36:12;;;;;;;6.22;3.25;;;30.90;36.30;;;;;;6128333;28;20094;-78
2021/06/10 17:39:16;;;;;;;4.45;3.08;;;30.80;36.80;;;;;;6128462;28;20047;-80
2021/06/10 17:42:17;;;;;;;4.78;3.33;;;30.60;37.10;;;;;;6128520;28;20078;-77
2021/06/10 17:45:18;;;;;;;3.65;2.97;;;30.50;37.80;;;;;;6128515;28;20094;-78
2021/06/10 17:48:20;;;;;;;5.72;3.78;;;30.30;38.00;;;;;;6133318;28;20422;-79
2021/06/10 17:51:21;;;;;;;4.32;3.22;;;30.20;38.20;;;;;;6128175;28;20456;-79
2021/06/10 17:54:22;;;;;;;4.65;3.47;;;30.10;38.30;;;;;;6127825;28;20043;-79
2021/06/10 17:57:23;;;;;;;5.38;3.30;;;30.00;38.40;;;;;;6115497;29;20045;-79
2021/06/10 18:00:27;;;;;;;6.95;3.63;;;29.90;38.40;;;;;;6103304;29;20052;-80
2021/06/10 18:03:29;;;;;;;5.10;2.92;;;29.90;38.50;;;;;;6104153;29;20470;-80
2021/06/10 18:06:33;;;;;;;5.88;3.38;;;29.80;38.90;;;;;;6103746;29;20048;-80
2021/06/10 18:09:44;;;;;;;3.58;3.25;;;29.80;38.50;;;;;;6120626;29;20033;-81
2021/06/10 18:12:47;;;;;;;9.80;3.88;;;29.80;38.50;;;;;;6105567;29;20051;-79
2021/06/10 18:15:50;;;;;;;6.43;3.28;;;29.70;38.60;;;;;;6120753;29;20111;-80
2021/06/10 18:18:55;;;;;;;5.20;3.33;;;29.60;38.50;;;;;;6131350;28;20122;-81
2021/06/10 18:21:59;;;;;;;9.85;3.67;;;29.60;38.50;;;;;;6127402;28;20028;-81
2021/06/10 18:25:03;;;;;;;5.03;3.10;;;29.60;38.50;;;;;;6110568;28;20140;-81
2021/06/10 18:28:04;;;;;;;4.47;3.40;;;29.50;38.50;;;;;;6110695;28;20036;-80
2021/06/10 18:31:05;;;;;;;4.07;2.90;;;29.50;38.50;;;;;;6127316;28;20055;-79
2021/06/10 18:34:06;;;;;;;5.18;3.67;;;29.50;38.60;;;;;;6126392;28;20042;-77
2021/06/10 18:37:08;;;;;;;4.03;3.15;;;29.50;38.50;;;;;;6128346;28;20050;-78
2021/06/10 18:40:09;;;;;;;7.93;3.22;;;29.40;38.50;;;;;;6127259;28;20051;-78
2021/06/10 18:43:10;;;;;;;4.57;3.15;;;29.40;38.60;;;;;;6127109;28;20460;-78
2021/06/10 18:46:11;;;;;;;11.05;3.22;;;29.40;38.60;;;;;;6127654;28;20031;-78
2021/06/10 18:49:15;;;;;;;7.95;3.63;;;29.40;38.70;;;;;;6110699;28;20110;-79
2021/06/10 18:52:17;;;;;;;6.93;4.18;;;29.30;38.80;;;;;;6110840;28;20027;-79
2021/06/10 18:55:19;;;;;;;4.95;3.20;;;29.30;39.00;;;;;;6121442;28;20035;-78
2021/06/10 18:58:20;;;;;;;5.47;3.55;;;29.30;39.30;;;;;;6126307;28;20495;-79
2021/06/10 19:01:21;;;;;;;6.65;3.67;;;29.20;39.50;;;;;;6128506;28;20363;-79
2021/06/10 19:04:23;;;;;;;6.63;4.13;;;29.20;39.60;;;;;;6127085;29;20368;-78
2021/06/10 19:07:25;;;;;;;7.63;4.30;;;29.10;40.00;;;;;;6127988;28;20059;-78
2021/06/10 19:10:27;;;;;;;6.40;3.90;;;29.10;40.30;;;;;;6126224;29;20039;-77
2021/06/10 19:13:31;;;;;;;6.30;4.00;;;29.00;40.60;;;;;;6127394;28;20043;-78
2021/06/10 19:16:32;;;;;;;6.50;3.72;;;28.90;40.90;;;;;;6126964;29;20051;-78
2021/06/10 19:19:36;;;;;;;9.13;4.03;;;28.90;41.10;;;;;;6126747;28;20046;-77
2021/06/10 19:22:40;;;;;;;10.32;4.20;;;28.80;41.30;;;;;;6127076;29;20165;-79
2021/06/10 19:25:41;;;;;;;6.45;4.00;;;28.80;41.50;;;;;;6126484;29;20039;-79
2021/06/10 19:28:43;;;;;;;4.40;3.70;;;28.60;41.60;;;;;;6110628;29;20500;-79
2021/06/10 19:31:45;;;;;;;7.97;4.57;;;28.50;41.70;;;;;;6109633;28;20046;-78
2021/06/10 19:34:47;;;;;;;7.05;4.55;;;28.40;41.70;;;;;;6133377;28;20105;-79
2021/06/10 19:37:53;;;;;;;7.45;3.80;;;28.40;41.70;;;;;;6106864;29;20123;-80
2021/06/10 19:40:58;;;;;;;7.32;4.30;;;28.40;41.90;;;;;;6129116;28;20050;-79
2021/06/10 19:44:02;;;;;;;8.43;4.50;;;28.30;42.00;;;;;;6126554;28;20035;-78
2021/06/10 19:47:03;;;;;;;5.18;4.22;;;28.20;42.20;;;;;;6127385;28;20032;-79
2021/06/10 19:50:09;;;;;;;6.47;3.70;;;28.10;42.20;;;;;;6125706;28;20150;-78
2021/06/10 19:53:10;;;;;;;8.48;4.20;;;28.10;42.40;;;;;;6127376;28;20508;-79
2021/06/10 19:56:11;;;;;;;5.80;3.95;;;28.00;42.40;;;;;;6123927;28;20106;-78
2021/06/10 19:59:12;;;;;;;6.30;4.03;;;27.90;42.50;;;;;;6099547;28;20035;-80
2021/06/10 20:02:13;;;;;;;5.45;3.85;;;27.90;42.60;;;;;;6121263;28;20047;-81
2021/06/10 20:05:14;;;;;;;8.93;4.13;;;27.90;42.60;;;;;;6104214;29;20040;-80
2021/06/10 20:08:15;;;;;;;8.23;4.68;;;27.80;42.60;;;;;;6103632;29;20063;-81
2021/06/10 20:11:19;;;;;;;8.35;4.20;;;27.80;42.70;;;;;;6103615;29;20525;-80
2021/06/10 20:14:21;;;;;;;8.77;3.88;;;27.80;42.80;;;;;;6102394;29;20484;-79
2021/06/10 20:17:22;;;;;;;7.60;4.70;;;27.70;43.10;;;;;;6126889;28;20062;-81
2021/06/10 20:20:25;;;;;;;5.65;4.57;;;27.70;43.10;;;;;;6101861;28;20040;-81
2021/06/10 20:23:27;;;;;;;6.55;4.57;;;27.70;43.30;;;;;;6126349;28;20052;-80
2021/06/10 20:26:29;;;;;;;8.25;4.88;;;27.60;43.40;;;;;;6108368;28;20039;-80
2021/06/10 20:33:10;;;;;;;7.20;4.32;;;27.50;43.60;;;;;;6141024;28;20123;-78
2021/06/10 20:36:11;;;;;;;6.97;4.72;;;27.50;43.70;;;;;;6124111;28;20039;-80
2021/06/10 20:39:13;;;;;;;7.07;4.85;;;27.50;43.80;;;;;;6126923;28;20039;-80
2021/06/10 20:42:14;;;;;;;9.25;4.75;;;27.50;43.90;;;;;;6126993;28;20098;-81
2021/06/10 20:45:15;;;;;;;8.13;4.93;;;27.50;44.10;;;;;;6114683;28;20030;-78
2021/06/10 20:48:16;;;;;;;27.10;12.50;;;27.50;44.50;;;;;;6138808;28;20099;-78
2021/06/10 20:51:42;;;;;;;23.73;13.60;;;27.40;44.60;;;;;;6128744;28;20076;-79
2021/06/10 20:54:44;;;;;;;16.00;9.10;;;27.40;44.70;;;;;;6129420;28;20050;-78
2021/06/10 20:57:45;;;;;;;15.25;9.05;;;27.40;44.90;;;;;;6105319;28;20363;-78
2021/06/10 21:00:48;;;;;;;18.13;5.82;;;27.40;44.90;;;;;;6121643;29;20032;-78
2021/06/10 21:03:49;;;;;;;9.73;5.32;;;27.40;45.10;;;;;;6115948;28;20066;-81
2021/06/10 21:06:50;;;;;;;8.85;5.35;;;27.30;45.30;;;;;;6121968;29;20357;-79
2021/06/10 21:09:52;;;;;;;9.95;4.93;;;27.20;45.50;;;;;;6107167;29;20119;-81
2021/06/10 21:12:53;;;;;;;8.07;5.00;;;27.10;45.60;;;;;;6103726;29;20070;-79
2021/06/10 21:15:55;;;;;;;6.18;4.22;;;27.00;45.70;;;;;;6111877;29;20408;-79
2021/06/10 21:18:57;;;;;;;7.45;4.32;;;26.90;45.80;;;;;;6123853;29;20051;-80
2021/06/10 21:21:58;;;;;;;6.07;4.28;;;26.90;45.90;;;;;;6124380;28;20035;-81
2021/06/10 21:24:59;;;;;;;6.40;4.35;;;26.80;45.90;;;;;;6112904;28;20051;-78
2021/06/10 21:28:01;;;;;;;10.40;4.28;;;26.70;45.90;;;;;;6130087;28;20035;-78
2021/06/10 21:31:02;;;;;;;5.25;3.80;;;26.70;45.90;;;;;;6118106;29;20544;-77
2021/06/10 21:34:04;;;;;;;5.57;3.95;;;26.60;45.90;;;;;;6106482;29;20457;-77
2021/06/10 21:37:05;;;;;;;6.18;3.88;;;26.60;46.00;;;;;;6105644;29;20054;-78
2021/06/10 21:40:10;;;;;;;13.02;4.70;;;26.50;46.20;;;;;;6106134;29;20098;-78
2021/06/10 21:43:14;;;;;;;17.48;4.45;;;26.40;46.30;;;;;;6116327;29;20040;-79
2021/06/10 21:46:17;;;;;;;7.25;4.40;;;26.40;46.60;;;;;;6130464;28;20039;-79
2021/06/10 21:49:18;;;;;;;5.38;3.92;;;26.30;46.60;;;;;;6130593;28;20093;-79
2021/06/10 21:52:19;;;;;;;7.53;4.53;;;26.20;46.60;;;;;;6129144;28;20039;-77
2021/06/10 21:55:21;;;;;;;6.70;4.30;;;26.20;46.70;;;;;;6113071;28;20042;-77
2021/06/10 21:58:22;;;;;;;7.60;4.20;;;26.20;46.80;;;;;;6129577;28;20169;-78
2021/06/10 22:01:23;;;;;;;7.07;4.10;;;26.10;46.90;;;;;;6113151;28;20044;-77
2021/06/10 22:04:24;;;;;;;6.32;4.68;;;26.10;47.00;;;;;;6105671;29;20051;-77
2021/06/10 22:07:25;;;;;;;6.95;4.38;;;26.10;47.10;;;;;;6105273;29;20465;-76
2021/06/10 22:10:29;;;;;;;8.40;4.55;;;26.00;47.10;;;;;;6105607;29;20123;-77
2021/06/10 22:13:30;;;;;;;12.70;4.50;;;26.00;47.20;;;;;;6121382;29;20040;-77
2021/06/10 22:16:31;;;;;;;7.65;4.50;;;26.00;47.30;;;;;;6105334;29;20040;-76
2021/06/10 22:19:34;;;;;;;7.97;4.78;;;26.00;47.60;;;;;;6105371;29;20051;-76
2021/06/10 22:22:35;;;;;;;13.10;4.05;;;26.00;48.00;;;;;;6122835;28;20502;-76
2021/06/10 22:25:37;;;;;;;8.65;4.35;;;26.00;48.10;;;;;;6129754;28;20055;-75
2021/06/10 22:28:38;;;;;;;7.18;4.15;;;26.00;48.10;;;;;;6123505;28;20036;-75
2021/06/10 22:31:39;;;;;;;9.38;4.45;;;26.00;48.00;;;;;;6114589;29;20085;-75
2021/06/10 22:34:41;;;;;;;8.50;3.90;;;26.00;47.90;;;;;;6120795;28;20170;-75
2021/06/10 22:37:43;;;;;;;5.43;3.75;;;25.90;47.70;;;;;;6128394;28;20106;-75
2021/06/10 22:41:04;;;;;;;6.63;4.30;;;25.90;47.50;;;;;;6127822;28;20067;-75
2021/06/10 22:44:05;;;;;;;9.02;4.05;;;25.90;48.50;;;;;;6124746;28;20043;-75
2021/06/10 22:47:06;;;;;;;5.45;4.30;;;25.90;47.80;;;;;;6127234;28;20050;-75
2021/06/10 22:50:10;;;;;;;6.10;4.28;;;25.80;47.70;;;;;;6125863;28;20043;-74
2021/06/10 22:53:21;;;;;;;7.85;4.13;;;25.80;47.70;;;;;;6117652;29;20048;-75
2021/06/10 22:56:22;;;;;;;11.82;5.10;;;25.80;47.70;;;;;;6112917;28;20454;-75
2021/06/10 22:59:23;;;;;;;7.38;4.55;;;25.70;47.70;;;;;;6103925;29;20106;-75
2021/06/10 23:02:30;;;;;;;11.48;4.75;;;25.70;47.80;;;;;;6126624;28;20347;-75
2021/06/10 23:05:31;;;;;;;7.88;4.45;;;25.60;47.80;;;;;;6126719;28;20036;-75
2021/06/10 23:08:32;;;;;;;8.18;3.83;;;25.60;47.90;;;;;;6126097;28;20055;-75
2021/06/10 23:11:34;;;;;;;6.60;4.35;;;25.40;47.80;;;;;;6126409;28;20082;-76
2021/06/10 23:14:35;;;;;;;6.97;4.15;;;25.40;47.90;;;;;;6126164;28;20043;-75
2021/06/10 23:17:35;;;;;;;4.93;3.53;;;25.40;47.90;;;;;;6126306;28;20364;-75
2021/06/10 23:20:37;;;;;;;9.15;4.10;;;25.40;47.90;;;;;;6126454;28;20036;-75
2021/06/10 23:23:38;;;;;;;6.20;4.00;;;25.40;48.00;;;;;;6125324;28;20069;-76
2021/06/10 23:26:39;;;;;;;6.03;4.30;;;25.30;47.90;;;;;;6110437;28;20113;-75
2021/06/10 23:29:40;;;;;;;6.82;4.35;;;25.30;48.00;;;;;;6125833;28;20032;-75
2021/06/10 23:32:41;;;;;;;7.50;4.47;;;25.30;48.00;;;;;;6102829;29;20080;-75
2021/06/10 23:35:42;;;;;;;10.40;4.50;;;25.20;48.20;;;;;;6131240;28;20032;-76
2021/06/10 23:38:43;;;;;;;8.52;4.90;;;25.20;48.30;;;;;;6125981;28;20082;-75
2021/06/10 23:41:44;;;;;;;10.27;4.35;;;25.20;48.70;;;;;;6126069;28;20074;-76
2021/06/10 23:44:45;;;;;;;8.32;4.97;;;25.10;48.90;;;;;;6125391;28;20352;-74
2021/06/10 23:47:47;;;;;;;9.70;4.28;;;25.00;49.00;;;;;;6115096;28;20043;-75
2021/06/10 23:50:48;;;;;;;13.43;4.97;;;25.00;49.10;;;;;;6102883;29;20467;-75
2021/06/10 23:53:49;;;;;;;7.00;5.38;;;24.90;49.20;;;;;;6102113;29;20083;-74
2021/06/10 23:56:50;;;;;;;8.98;5.47;;;24.90;49.30;;;;;;6118248;29;20032;-74
2021/06/10 23:59:51;;;;;;;7.80;5.40;;;24.90;49.60;;;;;;6104375;28;20667;-75
